Airfield :
LOGIN :

Register | Disclaimer

   EN    FR    IT 

 










Legend :    VFR   Marginal VFR   IFR   Intensive IFR   Very Intensive IFR
Visi :
Ceiling :
>= 8 km
>= 3000ft
5 to 8 km
1000 to 3000 ft
1500m to 5 km
500 to 1000 ft
800 to 1500m
200 to 500 ft
< 800m
< 200 ft
Symbols :   Thunderstorms  Fog  Heavy snow  Heavy precipitations  Wind > 20 kt
SIGMETs :     Misc.  Thunderstorms  Icing  Turbulence  Mountain Waves  Volcanic Ashes






- Airport Elevation : 741 ft
- IATA code : PED


LKPD - Pardubice AB

CURRENT METAR :
  • 171200Z 32007KT 280V010 9999 SCT033 SCT045 08/00 Q1006 NOSIG RMK BLU BLU

EXPIRED METARs :
  • 171130Z 29010KT 260V330 9999 SCT033 SCT043 09/M00 Q1006 NOSIG RMK BLU BLU
  • 171100Z 30007KT 250V020 9999 SCT026 SCT033 08/01 Q1006 NOSIG RMK BLU BLU
  • 171030Z 29008KT 260V340 9999 BKN023 06/01 Q1006 NOSIG RMK WHT WHT
  • 171000Z 29008KT 250V310 9999 BKN024 06/00 Q1006 NOSIG RMK WHT WHT
  • 170930Z 30010KT 270V340 9999 BKN023 06/00 Q1006 NOSIG RMK WHT WHT
  • 170900Z 30008KT 270V340 9999 BKN023 06/00 Q1006 NOSIG RMK WHT WHT
  • 170830Z 30011KT 270V330 9999 BKN022 06/00 Q1006 NOSIG RMK WHT WHT
  • 170800Z 30009KT 280V340 9999 BKN021 05/00 Q1006 NOSIG RMK WHT WHT
  • 170730Z 30011KT 270V340 9999 BKN020 05/01 Q1005 NOSIG RMK WHT WHT

TAF TAF LKPD
Valid from the 17 at 06:00 until the 18 at 06:00 UTC


170500Z 1706/1806 30012KT 9999 BKN040
TEMPO 1706/1710 BKN020
PROB40
TEMPO 1710/1716 7000 SHRA BKN030TCU
BECMG 1712/1715 03010KT CAVOK
PROB30
TEMPO 1802/1806 VRB02KT 3000 BR



MET'MAP, your aeronautical weather chart ! - Copyright ORBIFLY December 2007 - Disclaimer

ORBIFLY MET'MAP TEAM :

Programming & Development : Alexandra Zaïnal
Original concept : Baudouin d'Aumeries
Technical & hardware support : Manuel Goepfert
Assistance : Marc-Olivier Méhu




SOURCES & CREDITS :

   NOAA